createdAt,value
2023-01-13T00:02:45.033Z,4.10
2023-01-13T00:07:58.748Z,3.77
2023-01-13T00:13:06.857Z,3.67
2023-01-13T00:18:24.246Z,4.97
2023-01-13T00:24:25.905Z,4.10
2023-01-13T00:29:33.244Z,5.57
2023-01-13T00:34:46.596Z,4.90
2023-01-13T00:40:06.005Z,5.23
2023-01-13T00:45:31.042Z,5.40
2023-01-13T00:59:20.836Z,5.63
2023-01-13T01:12:06.263Z,6.07
2023-01-13T01:18:01.311Z,5.97
2023-01-13T01:29:41.257Z,7.53
2023-01-13T02:46:25.525Z,7.93
2023-01-13T02:52:19.830Z,7.70
2023-01-13T03:39:18.960Z,6.13
2023-01-13T03:45:29.463Z,5.83
2023-01-13T05:04:19.437Z,5.07
2023-01-13T05:15:31.922Z,4.80
2023-01-13T05:20:52.890Z,4.60
2023-01-13T05:26:17.336Z,4.57
2023-01-13T05:31:21.100Z,5.73
2023-01-13T05:36:24.881Z,5.27
2023-01-13T05:41:46.838Z,4.50
2023-01-13T05:46:51.214Z,4.77
2023-01-13T05:51:55.131Z,4.40
2023-01-13T05:57:04.133Z,4.50
2023-01-13T06:02:08.058Z,3.90
2023-01-13T06:07:11.926Z,5.27
2023-01-13T06:12:22.304Z,5.00
2023-01-13T06:17:31.088Z,4.00
2023-01-13T06:28:19.802Z,3.87
2023-01-13T06:33:54.881Z,4.20
2023-01-13T06:39:06.331Z,5.37
2023-01-13T06:44:13.740Z,5.17
2023-01-13T06:49:17.626Z,3.90
2023-01-13T06:54:21.665Z,4.13
2023-01-13T06:59:26.451Z,5.30
2023-01-13T07:04:30.201Z,5.00
2023-01-13T07:09:33.934Z,4.43
2023-01-13T07:14:55.935Z,4.63
2023-01-13T07:19:59.327Z,4.33
2023-01-13T07:25:03.000Z,5.00
2023-01-13T07:30:08.346Z,3.77
2023-01-13T07:35:12.391Z,3.93
2023-01-13T07:40:18.671Z,4.07
2023-01-13T07:45:22.600Z,4.27
2023-01-13T07:50:26.440Z,4.83
2023-01-13T07:55:30.357Z,4.87
2023-01-13T08:00:34.948Z,5.40
2023-01-13T08:05:39.548Z,5.03
2023-01-13T08:12:11.825Z,5.00
2023-01-13T08:17:16.200Z,5.30
2023-01-13T08:22:20.070Z,5.97
2023-01-13T08:27:24.138Z,5.70
2023-01-13T08:32:28.842Z,5.57
2023-01-13T08:37:32.463Z,4.60
2023-01-13T08:42:36.346Z,5.13
2023-01-13T08:47:42.596Z,4.63
2023-01-13T08:52:46.532Z,4.70
2023-01-13T08:57:50.666Z,4.93
2023-01-13T09:02:54.718Z,5.00
2023-01-13T09:08:00.186Z,4.77
2023-01-13T09:13:13.576Z,5.07
2023-01-13T09:18:17.186Z,5.87
2023-01-13T09:24:14.011Z,5.20
2023-01-13T09:29:21.944Z,4.70
2023-01-13T09:34:44.870Z,4.80
2023-01-13T09:39:59.280Z,4.77
2023-01-13T09:45:36.570Z,4.27
2023-01-13T10:18:22.079Z,4.97
2023-01-13T11:17:34.737Z,2.60
2023-01-13T11:24:42.108Z,2.47
2023-01-13T11:38:31.472Z,2.43
2023-01-13T12:31:53.093Z,2.77
2023-01-13T12:37:33.719Z,2.40
2023-01-13T12:43:40.077Z,3.00
2023-01-13T13:44:52.944Z,6.93
2023-01-13T13:50:37.097Z,6.80
2023-01-13T13:56:29.508Z,6.10
2023-01-13T14:01:42.416Z,5.73
2023-01-13T14:07:07.555Z,6.50
2023-01-13T14:12:25.373Z,6.50
2023-01-13T14:24:32.902Z,8.37
2023-01-13T14:29:37.953Z,5.37
2023-01-13T14:34:42.092Z,4.00
2023-01-13T14:39:49.354Z,3.83
2023-01-13T14:44:55.623Z,4.23
2023-01-13T14:50:05.509Z,5.47
2023-01-13T14:55:26.404Z,4.30
2023-01-13T15:00:30.125Z,5.17
2023-01-13T15:05:40.184Z,2.63
2023-01-13T15:10:54.974Z,2.57
2023-01-13T15:16:01.880Z,3.27
2023-01-13T15:21:06.798Z,2.30
2023-01-13T15:26:31.450Z,2.70
2023-01-13T15:31:39.103Z,6.97
2023-01-13T15:36:42.655Z,2.80
2023-01-13T15:42:04.275Z,2.20
2023-01-13T15:47:10.527Z,2.57
2023-01-13T15:57:56.867Z,3.00
2023-01-13T16:03:00.512Z,4.27
2023-01-13T16:28:57.286Z,3.90
2023-01-13T16:48:29.647Z,3.33
2023-01-13T17:12:24.854Z,3.77
2023-01-13T17:18:09.167Z,4.17
2023-01-13T17:29:39.647Z,3.80
2023-01-13T17:35:27.046Z,4.63
2023-01-13T17:41:11.635Z,4.43
2023-01-13T17:46:37.976Z,3.43
2023-01-13T18:05:36.762Z,3.30
2023-01-13T19:20:35.406Z,4.03
2023-01-13T19:32:23.452Z,3.83
2023-01-13T19:38:38.853Z,4.50
2023-01-13T19:44:04.627Z,5.23
2023-01-13T19:49:41.120Z,4.50
2023-01-13T20:01:58.341Z,5.00
2023-01-13T20:07:03.038Z,5.67
2023-01-13T20:12:16.376Z,4.43
2023-01-13T20:17:23.677Z,4.43
2023-01-13T20:22:31.605Z,5.03
2023-01-13T20:27:37.592Z,4.33
2023-01-13T20:32:43.907Z,4.50
2023-01-13T20:37:54.969Z,4.27
2023-01-13T20:43:06.587Z,4.03
2023-01-13T20:48:18.253Z,4.20
2023-01-13T20:53:24.420Z,4.17
2023-01-13T20:58:29.761Z,5.13
2023-01-13T21:03:43.447Z,4.13
2023-01-13T21:08:50.719Z,4.67
2023-01-13T21:14:13.250Z,3.70
2023-01-13T21:33:15.470Z,2.77
2023-01-13T21:38:21.091Z,3.00
2023-01-13T21:43:46.957Z,2.80
2023-01-13T22:46:59.176Z,2.43
2023-01-13T22:52:03.762Z,5.13
